sensor_id;sensor_type;location;lat;lon;timestamp;pressure;altitude;pressure_sealevel;temperature
24639;BMP180;1641;51.306;12.384;2022-07-05T00:01:56;100509.00;;;20.70
24639;BMP180;1641;51.306;12.384;2022-07-05T00:04:22;100515.00;;;21.30
24639;BMP180;1641;51.306;12.384;2022-07-05T00:06:47;100505.00;;;21.50
24639;BMP180;1641;51.306;12.384;2022-07-05T00:09:31;100512.00;;;21.40
24639;BMP180;1641;51.306;12.384;2022-07-05T00:11:56;100512.00;;;21.20
24639;BMP180;1641;51.306;12.384;2022-07-05T00:14:22;100507.00;;;21.40
24639;BMP180;1641;51.306;12.384;2022-07-05T00:16:47;100514.00;;;21.30
24639;BMP180;1641;51.306;12.384;2022-07-05T00:19:14;100519.00;;;21.00
24639;BMP180;1641;51.306;12.384;2022-07-05T00:21:39;100517.00;;;21.00
24639;BMP180;1641;51.306;12.384;2022-07-05T00:24:05;100521.00;;;20.50
24639;BMP180;1641;51.306;12.384;2022-07-05T00:26:30;100528.00;;;20.70
24639;BMP180;1641;51.306;12.384;2022-07-05T00:28:55;100516.00;;;20.90
24639;BMP180;1641;51.306;12.384;2022-07-05T00:31:20;100504.00;;;20.90
24639;BMP180;1641;51.306;12.384;2022-07-05T00:33:46;100495.00;;;20.70
24639;BMP180;1641;51.306;12.384;2022-07-05T00:36:11;100514.00;;;20.90
24639;BMP180;1641;51.306;12.384;2022-07-05T00:38:36;100503.00;;;20.60
24639;BMP180;1641;51.306;12.384;2022-07-05T00:41:01;100511.00;;;20.20
24639;BMP180;1641;51.306;12.384;2022-07-05T00:43:27;100519.00;;;20.10
24639;BMP180;1641;51.306;12.384;2022-07-05T00:45:52;100516.00;;;20.20
24639;BMP180;1641;51.306;12.384;2022-07-05T00:48:17;100517.00;;;20.10
24639;BMP180;1641;51.306;12.384;2022-07-05T00:50:42;100511.00;;;20.00
24639;BMP180;1641;51.306;12.384;2022-07-05T00:53:08;100478.00;;;19.80
24639;BMP180;1641;51.306;12.384;2022-07-05T00:55:34;100514.00;;;19.80
24639;BMP180;1641;51.306;12.384;2022-07-05T00:57:59;100505.00;;;19.70
24639;BMP180;1641;51.306;12.384;2022-07-05T01:00:24;100519.00;;;19.80
24639;BMP180;1641;51.306;12.384;2022-07-05T01:02:50;100503.00;;;19.80
24639;BMP180;1641;51.306;12.384;2022-07-05T01:05:17;100523.00;;;19.80
24639;BMP180;1641;51.306;12.384;2022-07-05T01:07:43;100517.00;;;19.90
24639;BMP180;1641;51.306;12.384;2022-07-05T01:10:09;100519.00;;;19.90
24639;BMP180;1641;51.306;12.384;2022-07-05T01:12:37;100514.00;;;20.00
24639;BMP180;1641;51.306;12.384;2022-07-05T01:15:03;100518.00;;;20.40
24639;BMP180;1641;51.306;12.384;2022-07-05T01:17:29;100516.00;;;20.30
24639;BMP180;1641;51.306;12.384;2022-07-05T01:19:54;100517.00;;;20.10
24639;BMP180;1641;51.306;12.384;2022-07-05T01:22:20;100518.00;;;20.10
24639;BMP180;1641;51.306;12.384;2022-07-05T01:24:49;100496.00;;;20.10
24639;BMP180;1641;51.306;12.384;2022-07-05T01:27:15;100509.00;;;20.00
24639;BMP180;1641;51.306;12.384;2022-07-05T01:29:42;100514.00;;;20.30
24639;BMP180;1641;51.306;12.384;2022-07-05T01:32:07;100516.00;;;20.30
24639;BMP180;1641;51.306;12.384;2022-07-05T01:34:36;100509.00;;;20.00
24639;BMP180;1641;51.306;12.384;2022-07-05T01:37:03;100513.00;;;19.80
24639;BMP180;1641;51.306;12.384;2022-07-05T01:39:30;100503.00;;;19.70
24639;BMP180;1641;51.306;12.384;2022-07-05T01:41:55;100508.00;;;19.60
24639;BMP180;1641;51.306;12.384;2022-07-05T01:44:20;100501.00;;;19.50
24639;BMP180;1641;51.306;12.384;2022-07-05T01:46:46;100503.00;;;19.50
24639;BMP180;1641;51.306;12.384;2022-07-05T01:49:16;100503.00;;;19.50
24639;BMP180;1641;51.306;12.384;2022-07-05T01:51:51;100494.00;;;19.40
24639;BMP180;1641;51.306;12.384;2022-07-05T01:54:18;100469.00;;;19.40
24639;BMP180;1641;51.306;12.384;2022-07-05T01:56:44;100498.00;;;19.20
24639;BMP180;1641;51.306;12.384;2022-07-05T01:59:09;100499.00;;;19.20
24639;BMP180;1641;51.306;12.384;2022-07-05T02:01:36;100489.00;;;19.50
24639;BMP180;1641;51.306;12.384;2022-07-05T02:04:05;100493.00;;;19.90
24639;BMP180;1641;51.306;12.384;2022-07-05T02:06:32;100500.00;;;20.10
24639;BMP180;1641;51.306;12.384;2022-07-05T02:08:58;100506.00;;;19.90
24639;BMP180;1641;51.306;12.384;2022-07-05T02:11:23;100500.00;;;19.90
24639;BMP180;1641;51.306;12.384;2022-07-05T02:13:48;100499.00;;;19.80
24639;BMP180;1641;51.306;12.384;2022-07-05T02:16:13;100507.00;;;19.60
24639;BMP180;1641;51.306;12.384;2022-07-05T02:18:39;100501.00;;;19.30
24639;BMP180;1641;51.306;12.384;2022-07-05T02:21:05;100503.00;;;19.40
24639;BMP180;1641;51.306;12.384;2022-07-05T02:23:30;100500.00;;;19.50
24639;BMP180;1641;51.306;12.384;2022-07-05T02:25:55;100491.00;;;19.50
24639;BMP180;1641;51.306;12.384;2022-07-05T02:28:21;100499.00;;;19.40
24639;BMP180;1641;51.306;12.384;2022-07-05T02:30:46;100499.00;;;19.10
24639;BMP180;1641;51.306;12.384;2022-07-05T02:33:11;100506.00;;;18.30
24639;BMP180;1641;51.306;12.384;2022-07-05T02:35:36;100505.00;;;18.60
24639;BMP180;1641;51.306;12.384;2022-07-05T02:38:03;100503.00;;;18.70
24639;BMP180;1641;51.306;12.384;2022-07-05T02:40:28;100510.00;;;18.80
24639;BMP180;1641;51.306;12.384;2022-07-05T02:42:53;100512.00;;;18.40
24639;BMP180;1641;51.306;12.384;2022-07-05T02:45:19;100524.00;;;18.30
24639;BMP180;1641;51.306;12.384;2022-07-05T02:47:44;100521.00;;;18.20
24639;BMP180;1641;51.306;12.384;2022-07-05T02:50:10;100519.00;;;18.20
24639;BMP180;1641;51.306;12.384;2022-07-05T02:52:36;100509.00;;;18.30
24639;BMP180;1641;51.306;12.384;2022-07-05T02:55:02;100506.00;;;18.30
24639;BMP180;1641;51.306;12.384;2022-07-05T02:57:27;100495.00;;;18.50
24639;BMP180;1641;51.306;12.384;2022-07-05T02:59:54;100512.00;;;18.70
24639;BMP180;1641;51.306;12.384;2022-07-05T03:02:22;100508.00;;;19.20
24639;BMP180;1641;51.306;12.384;2022-07-05T03:04:48;100520.00;;;19.50
24639;BMP180;1641;51.306;12.384;2022-07-05T03:07:13;100521.00;;;19.20
24639;BMP180;1641;51.306;12.384;2022-07-05T03:09:39;100505.00;;;19.20
24639;BMP180;1641;51.306;12.384;2022-07-05T03:12:04;100525.00;;;19.30
24639;BMP180;1641;51.306;12.384;2022-07-05T03:14:30;100522.00;;;19.10
24639;BMP180;1641;51.306;12.384;2022-07-05T03:16:55;100529.00;;;18.80
24639;BMP180;1641;51.306;12.384;2022-07-05T03:19:20;100534.00;;;18.80
24639;BMP180;1641;51.306;12.384;2022-07-05T03:21:45;100540.00;;;18.80
24639;BMP180;1641;51.306;12.384;2022-07-05T03:24:11;100550.00;;;18.40
24639;BMP180;1641;51.306;12.384;2022-07-05T03:26:36;100550.00;;;18.30
24639;BMP180;1641;51.306;12.384;2022-07-05T03:29:02;100553.00;;;18.30
24639;BMP180;1641;51.306;12.384;2022-07-05T03:31:27;100549.00;;;18.20
24639;BMP180;1641;51.306;12.384;2022-07-05T03:33:52;100556.00;;;18.10
24639;BMP180;1641;51.306;12.384;2022-07-05T03:36:17;100547.00;;;18.20
24639;BMP180;1641;51.306;12.384;2022-07-05T03:38:42;100560.00;;;18.00
24639;BMP180;1641;51.306;12.384;2022-07-05T03:41:08;100560.00;;;17.90
24639;BMP180;1641;51.306;12.384;2022-07-05T03:43:33;100564.00;;;18.10
24639;BMP180;1641;51.306;12.384;2022-07-05T03:45:58;100568.00;;;18.40
24639;BMP180;1641;51.306;12.384;2022-07-05T03:48:24;100565.00;;;18.20
24639;BMP180;1641;51.306;12.384;2022-07-05T03:50:49;100557.00;;;18.00
24639;BMP180;1641;51.306;12.384;2022-07-05T03:53:14;100571.00;;;18.40
24639;BMP180;1641;51.306;12.384;2022-07-05T03:55:40;100578.00;;;18.20
24639;BMP180;1641;51.306;12.384;2022-07-05T03:58:05;100574.00;;;18.00
24639;BMP180;1641;51.306;12.384;2022-07-05T04:00:31;100570.00;;;17.80
24639;BMP180;1641;51.306;12.384;2022-07-05T04:02:56;100567.00;;;18.10
24639;BMP180;1641;51.306;12.384;2022-07-05T04:05:21;100567.00;;;17.90
24639;BMP180;1641;51.306;12.384;2022-07-05T04:07:51;100577.00;;;18.30
24639;BMP180;1641;51.306;12.384;2022-07-05T04:10:17;100587.00;;;18.40
24639;BMP180;1641;51.306;12.384;2022-07-05T04:12:43;100555.00;;;18.70
24639;BMP180;1641;51.306;12.384;2022-07-05T04:15:08;100546.00;;;18.50
24639;BMP180;1641;51.306;12.384;2022-07-05T04:17:34;100578.00;;;18.60
24639;BMP180;1641;51.306;12.384;2022-07-05T04:19:59;100568.00;;;18.60
24639;BMP180;1641;51.306;12.384;2022-07-05T04:22:24;100568.00;;;18.50
24639;BMP180;1641;51.306;12.384;2022-07-05T04:24:49;100580.00;;;18.60
24639;BMP180;1641;51.306;12.384;2022-07-05T04:27:39;100581.00;;;18.40
24639;BMP180;1641;51.306;12.384;2022-07-05T04:30:06;100583.00;;;18.60
24639;BMP180;1641;51.306;12.384;2022-07-05T04:32:31;100593.00;;;18.60
24639;BMP180;1641;51.306;12.384;2022-07-05T04:35:00;100587.00;;;18.40
24639;BMP180;1641;51.306;12.384;2022-07-05T04:37:25;100586.00;;;18.50
24639;BMP180;1641;51.306;12.384;2022-07-05T04:39:50;100594.00;;;18.50
24639;BMP180;1641;51.306;12.384;2022-07-05T04:42:16;100564.00;;;18.10
24639;BMP180;1641;51.306;12.384;2022-07-05T04:44:41;100598.00;;;18.10
24639;BMP180;1641;51.306;12.384;2022-07-05T04:47:06;100600.00;;;18.30
24639;BMP180;1641;51.306;12.384;2022-07-05T04:49:37;100597.00;;;18.40
24639;BMP180;1641;51.306;12.384;2022-07-05T04:52:03;100599.00;;;18.30
24639;BMP180;1641;51.306;12.384;2022-07-05T04:54:28;100572.00;;;18.20
24639;BMP180;1641;51.306;12.384;2022-07-05T04:56:54;100598.00;;;18.30
24639;BMP180;1641;51.306;12.384;2022-07-05T04:59:19;100601.00;;;18.20
24639;BMP180;1641;51.306;12.384;2022-07-05T05:01:44;100590.00;;;18.50
24639;BMP180;1641;51.306;12.384;2022-07-05T05:04:10;100510.00;;;18.50
24639;BMP180;1641;51.306;12.384;2022-07-05T05:06:38;100601.00;;;18.40
24639;BMP180;1641;51.306;12.384;2022-07-05T05:09:09;100607.00;;;18.30
24639;BMP180;1641;51.306;12.384;2022-07-05T05:11:35;100606.00;;;18.50
24639;BMP180;1641;51.306;12.384;2022-07-05T05:14:00;100607.00;;;18.10
24639;BMP180;1641;51.306;12.384;2022-07-05T05:16:25;100601.00;;;18.30
24639;BMP180;1641;51.306;12.384;2022-07-05T05:18:53;100604.00;;;18.50
24639;BMP180;1641;51.306;12.384;2022-07-05T05:21:19;100609.00;;;18.30
24639;BMP180;1641;51.306;12.384;2022-07-05T05:23:44;100613.00;;;18.60
24639;BMP180;1641;51.306;12.384;2022-07-05T05:26:09;100616.00;;;18.80
24639;BMP180;1641;51.306;12.384;2022-07-05T05:28:35;100612.00;;;18.50
24639;BMP180;1641;51.306;12.384;2022-07-05T05:31:00;100618.00;;;19.20
24639;BMP180;1641;51.306;12.384;2022-07-05T05:33:34;100612.00;;;19.40
24639;BMP180;1641;51.306;12.384;2022-07-05T05:36:00;100611.00;;;19.60
24639;BMP180;1641;51.306;12.384;2022-07-05T05:38:29;100607.00;;;20.70
24639;BMP180;1641;51.306;12.384;2022-07-05T05:40:57;100616.00;;;20.70
24639;BMP180;1641;51.306;12.384;2022-07-05T05:43:22;100616.00;;;20.20
24639;BMP180;1641;51.306;12.384;2022-07-05T05:45:48;100618.00;;;20.00
24639;BMP180;1641;51.306;12.384;2022-07-05T05:48:13;100630.00;;;19.90
24639;BMP180;1641;51.306;12.384;2022-07-05T05:50:41;100616.00;;;19.70
24639;BMP180;1641;51.306;12.384;2022-07-05T05:53:07;100623.00;;;20.20
24639;BMP180;1641;51.306;12.384;2022-07-05T05:55:33;100621.00;;;20.60
24639;BMP180;1641;51.306;12.384;2022-07-05T05:58:21;100629.00;;;22.40
24639;BMP180;1641;51.306;12.384;2022-07-05T06:00:49;100629.00;;;22.20
24639;BMP180;1641;51.306;12.384;2022-07-05T06:03:16;100629.00;;;21.00
24639;BMP180;1641;51.306;12.384;2022-07-05T06:05:41;100636.00;;;22.10
24639;BMP180;1641;51.306;12.384;2022-07-05T06:08:09;100635.00;;;23.70
24639;BMP180;1641;51.306;12.384;2022-07-05T06:10:39;100633.00;;;25.00
24639;BMP180;1641;51.306;12.384;2022-07-05T06:13:06;100640.00;;;24.10
24639;BMP180;1641;51.306;12.384;2022-07-05T06:15:32;100637.00;;;24.20
24639;BMP180;1641;51.306;12.384;2022-07-05T06:17:58;100656.00;;;24.00
24639;BMP180;1641;51.306;12.384;2022-07-05T06:20:26;100653.00;;;25.40
24639;BMP180;1641;51.306;12.384;2022-07-05T06:22:52;100649.00;;;25.90
24639;BMP180;1641;51.306;12.384;2022-07-05T06:25:18;100656.00;;;26.50
24639;BMP180;1641;51.306;12.384;2022-07-05T06:27:46;100657.00;;;26.80
24639;BMP180;1641;51.306;12.384;2022-07-05T06:30:14;100664.00;;;25.70
24639;BMP180;1641;51.306;12.384;2022-07-05T06:32:39;100669.00;;;24.50
24639;BMP180;1641;51.306;12.384;2022-07-05T06:35:05;100659.00;;;24.00
24639;BMP180;1641;51.306;12.384;2022-07-05T06:37:45;100666.00;;;25.50
24639;BMP180;1641;51.306;12.384;2022-07-05T06:40:11;100668.00;;;24.70
24639;BMP180;1641;51.306;12.384;2022-07-05T06:42:37;100663.00;;;26.40
24639;BMP180;1641;51.306;12.384;2022-07-05T06:45:07;100664.00;;;26.40
24639;BMP180;1641;51.306;12.384;2022-07-05T06:47:35;100677.00;;;25.00
24639;BMP180;1641;51.306;12.384;2022-07-05T06:50:01;100681.00;;;24.40
24639;BMP180;1641;51.306;12.384;2022-07-05T06:52:28;100675.00;;;24.70
24639;BMP180;1641;51.306;12.384;2022-07-05T06:54:53;100666.00;;;24.70
24639;BMP180;1641;51.306;12.384;2022-07-05T06:57:22;100670.00;;;24.90
24639;BMP180;1641;51.306;12.384;2022-07-05T06:59:47;100681.00;;;24.90
24639;BMP180;1641;51.306;12.384;2022-07-05T07:02:13;100674.00;;;25.70
24639;BMP180;1641;51.306;12.384;2022-07-05T07:04:38;100669.00;;;25.10
24639;BMP180;1641;51.306;12.384;2022-07-05T07:07:03;100669.00;;;25.40
24639;BMP180;1641;51.306;12.384;2022-07-05T07:09:29;100672.00;;;26.30
24639;BMP180;1641;51.306;12.384;2022-07-05T07:11:54;100680.00;;;26.40
24639;BMP180;1641;51.306;12.384;2022-07-05T07:14:24;100623.00;;;27.70
24639;BMP180;1641;51.306;12.384;2022-07-05T07:16:49;100683.00;;;26.50
24639;BMP180;1641;51.306;12.384;2022-07-05T07:19:14;100669.00;;;27.10
24639;BMP180;1641;51.306;12.384;2022-07-05T07:21:40;100673.00;;;27.50
24639;BMP180;1641;51.306;12.384;2022-07-05T07:24:07;100674.00;;;27.80
24639;BMP180;1641;51.306;12.384;2022-07-05T07:26:32;100678.00;;;26.90
24639;BMP180;1641;51.306;12.384;2022-07-05T07:29:18;100670.00;;;27.20
24639;BMP180;1641;51.306;12.384;2022-07-05T07:31:43;100673.00;;;28.00
24639;BMP180;1641;51.306;12.384;2022-07-05T07:34:08;100672.00;;;28.10
24639;BMP180;1641;51.306;12.384;2022-07-05T07:36:36;100672.00;;;30.00
24639;BMP180;1641;51.306;12.384;2022-07-05T07:39:02;100673.00;;;29.50
24639;BMP180;1641;51.306;12.384;2022-07-05T07:41:27;100662.00;;;30.20
24639;BMP180;1641;51.306;12.384;2022-07-05T07:43:52;100652.00;;;28.70
24639;BMP180;1641;51.306;12.384;2022-07-05T07:46:20;100681.00;;;28.20
24639;BMP180;1641;51.306;12.384;2022-07-05T07:48:46;100676.00;;;28.70
24639;BMP180;1641;51.306;12.384;2022-07-05T07:51:11;100673.00;;;28.70
24639;BMP180;1641;51.306;12.384;2022-07-05T07:53:36;100672.00;;;28.20
24639;BMP180;1641;51.306;12.384;2022-07-05T07:56:02;100678.00;;;26.80
24639;BMP180;1641;51.306;12.384;2022-07-05T07:58:27;100671.00;;;28.60
24639;BMP180;1641;51.306;12.384;2022-07-05T08:00:53;100677.00;;;29.30
24639;BMP180;1641;51.306;12.384;2022-07-05T08:03:21;100672.00;;;29.10
24639;BMP180;1641;51.306;12.384;2022-07-05T08:05:46;100653.00;;;29.30
24639;BMP180;1641;51.306;12.384;2022-07-05T08:08:11;100666.00;;;31.10
24639;BMP180;1641;51.306;12.384;2022-07-05T08:10:36;100656.00;;;32.40
24639;BMP180;1641;51.306;12.384;2022-07-05T08:13:02;100671.00;;;28.90
24639;BMP180;1641;51.306;12.384;2022-07-05T08:15:27;100678.00;;;28.30
24639;BMP180;1641;51.306;12.384;2022-07-05T08:17:52;100670.00;;;29.00
24639;BMP180;1641;51.306;12.384;2022-07-05T08:20:36;100669.00;;;29.80
24639;BMP180;1641;51.306;12.384;2022-07-05T08:23:23;100669.00;;;29.80
24639;BMP180;1641;51.306;12.384;2022-07-05T08:25:48;100669.00;;;31.10
24639;BMP180;1641;51.306;12.384;2022-07-05T08:28:13;100678.00;;;31.60
24639;BMP180;1641;51.306;12.384;2022-07-05T08:30:39;100672.00;;;30.90
24639;BMP180;1641;51.306;12.384;2022-07-05T08:33:04;100671.00;;;31.80
24639;BMP180;1641;51.306;12.384;2022-07-05T08:35:29;100660.00;;;33.00
24639;BMP180;1641;51.306;12.384;2022-07-05T08:37:54;100666.00;;;34.00
24639;BMP180;1641;51.306;12.384;2022-07-05T08:40:22;100665.00;;;31.80
24639;BMP180;1641;51.306;12.384;2022-07-05T08:42:52;100672.00;;;30.30
24639;BMP180;1641;51.306;12.384;2022-07-05T08:45:18;100669.00;;;30.00
24639;BMP180;1641;51.306;12.384;2022-07-05T08:47:44;100662.00;;;29.80
24639;BMP180;1641;51.306;12.384;2022-07-05T08:50:10;100664.00;;;30.50
24639;BMP180;1641;51.306;12.384;2022-07-05T08:52:39;100669.00;;;31.20
24639;BMP180;1641;51.306;12.384;2022-07-05T08:55:05;100669.00;;;32.50
24639;BMP180;1641;51.306;12.384;2022-07-05T08:57:33;100643.00;;;32.30
24639;BMP180;1641;51.306;12.384;2022-07-05T08:59:59;100666.00;;;31.60
24639;BMP180;1641;51.306;12.384;2022-07-05T09:02:27;100636.00;;;31.80
24639;BMP180;1641;51.306;12.384;2022-07-05T09:05:00;100637.00;;;31.60
24639;BMP180;1641;51.306;12.384;2022-07-05T09:07:27;100661.00;;;31.10
24639;BMP180;1641;51.306;12.384;2022-07-05T09:09:55;100660.00;;;31.40
24639;BMP180;1641;51.306;12.384;2022-07-05T09:12:22;100656.00;;;31.30
24639;BMP180;1641;51.306;12.384;2022-07-05T09:14:47;100660.00;;;32.30
24639;BMP180;1641;51.306;12.384;2022-07-05T09:17:13;100646.00;;;32.50
24639;BMP180;1641;51.306;12.384;2022-07-05T09:19:38;100653.00;;;31.10
24639;BMP180;1641;51.306;12.384;2022-07-05T09:22:04;100659.00;;;30.80
24639;BMP180;1641;51.306;12.384;2022-07-05T09:24:30;100654.00;;;32.00
24639;BMP180;1641;51.306;12.384;2022-07-05T09:27:02;100661.00;;;31.80
24639;BMP180;1641;51.306;12.384;2022-07-05T09:29:28;100657.00;;;31.70
24639;BMP180;1641;51.306;12.384;2022-07-05T09:31:54;100661.00;;;33.50
24639;BMP180;1641;51.306;12.384;2022-07-05T09:34:19;100655.00;;;33.90
24639;BMP180;1641;51.306;12.384;2022-07-05T09:37:03;100656.00;;;32.70
24639;BMP180;1641;51.306;12.384;2022-07-05T09:42:20;100656.00;;;31.40
24639;BMP180;1641;51.306;12.384;2022-07-05T09:44:50;100653.00;;;30.80
24639;BMP180;1641;51.306;12.384;2022-07-05T09:47:18;100642.00;;;30.80
24639;BMP180;1641;51.306;12.384;2022-07-05T09:49:48;100653.00;;;30.50
24639;BMP180;1641;51.306;12.384;2022-07-05T09:55:13;100630.00;;;28.00
24639;BMP180;1641;51.306;12.384;2022-07-05T09:57:42;100655.00;;;27.70
24639;BMP180;1641;51.306;12.384;2022-07-05T10:00:10;100654.00;;;27.90
24639;BMP180;1641;51.306;12.384;2022-07-05T10:05:21;100652.00;;;27.80
24639;BMP180;1641;51.306;12.384;2022-07-05T10:07:49;100652.00;;;28.30
24639;BMP180;1641;51.306;12.384;2022-07-05T10:10:21;100649.00;;;27.90
24639;BMP180;1641;51.306;12.384;2022-07-05T10:12:49;100588.00;;;27.20
24639;BMP180;1641;51.306;12.384;2022-07-05T10:15:17;100646.00;;;27.20
24639;BMP180;1641;51.306;12.384;2022-07-05T10:17:51;100628.00;;;28.10
24639;BMP180;1641;51.306;12.384;2022-07-05T10:20:25;100629.00;;;27.80
24639;BMP180;1641;51.306;12.384;2022-07-05T10:22:53;100632.00;;;27.90
24639;BMP180;1641;51.306;12.384;2022-07-05T10:25:19;100608.00;;;27.80
24639;BMP180;1641;51.306;12.384;2022-07-05T10:27:44;100641.00;;;27.60
24639;BMP180;1641;51.306;12.384;2022-07-05T10:30:11;100636.00;;;27.70
24639;BMP180;1641;51.306;12.384;2022-07-05T10:32:38;100637.00;;;27.90
24639;BMP180;1641;51.306;12.384;2022-07-05T10:35:03;100649.00;;;27.50
24639;BMP180;1641;51.306;12.384;2022-07-05T10:37:32;100650.00;;;26.20
24639;BMP180;1641;51.306;12.384;2022-07-05T10:39:59;100603.00;;;27.30
24639;BMP180;1641;51.306;12.384;2022-07-05T10:42:28;100644.00;;;27.20
24639;BMP180;1641;51.306;12.384;2022-07-05T10:44:55;100565.00;;;27.20
24639;BMP180;1641;51.306;12.384;2022-07-05T10:47:20;100643.00;;;27.10
24639;BMP180;1641;51.306;12.384;2022-07-05T10:50:00;100633.00;;;27.00
24639;BMP180;1641;51.306;12.384;2022-07-05T10:52:26;100645.00;;;27.20
24639;BMP180;1641;51.306;12.384;2022-07-05T10:55:23;100633.00;;;27.10
24639;BMP180;1641;51.306;12.384;2022-07-05T10:58:19;100597.00;;;26.50
24639;BMP180;1641;51.306;12.384;2022-07-05T11:00:46;100632.00;;;26.10
24639;BMP180;1641;51.306;12.384;2022-07-05T11:03:46;100638.00;;;26.30
24639;BMP180;1641;51.306;12.384;2022-07-05T11:06:25;100633.00;;;26.70
24639;BMP180;1641;51.306;12.384;2022-07-05T11:11:25;100641.00;;;27.40
24639;BMP180;1641;51.306;12.384;2022-07-05T11:13:50;100602.00;;;27.40
24639;BMP180;1641;51.306;12.384;2022-07-05T11:16:32;100628.00;;;27.30
24639;BMP180;1641;51.306;12.384;2022-07-05T11:21:33;100632.00;;;26.90
24639;BMP180;1641;51.306;12.384;2022-07-05T11:24:21;100631.00;;;26.50
24639;BMP180;1641;51.306;12.384;2022-07-05T11:26:51;100609.00;;;26.90
24639;BMP180;1641;51.306;12.384;2022-07-05T11:29:41;100627.00;;;27.10
24639;BMP180;1641;51.306;12.384;2022-07-05T11:32:15;100616.00;;;27.10
24639;BMP180;1641;51.306;12.384;2022-07-05T11:34:45;100617.00;;;27.30
24639;BMP180;1641;51.306;12.384;2022-07-05T11:39:42;100623.00;;;27.90
24639;BMP180;1641;51.306;12.384;2022-07-05T11:42:19;100619.00;;;27.40
24639;BMP180;1641;51.306;12.384;2022-07-05T11:44:49;100611.00;;;27.60
24639;BMP180;1641;51.306;12.384;2022-07-05T11:47:15;100601.00;;;27.30
24639;BMP180;1641;51.306;12.384;2022-07-05T11:49:54;100609.00;;;27.50
24639;BMP180;1641;51.306;12.384;2022-07-05T11:52:25;100603.00;;;27.60
24639;BMP180;1641;51.306;12.384;2022-07-05T11:54:51;100596.00;;;27.60
24639;BMP180;1641;51.306;12.384;2022-07-05T11:57:18;100595.00;;;27.50
24639;BMP180;1641;51.306;12.384;2022-07-05T11:59:44;100587.00;;;27.80
24639;BMP180;1641;51.306;12.384;2022-07-05T12:02:09;100587.00;;;27.50
24639;BMP180;1641;51.306;12.384;2022-07-05T12:04:38;100570.00;;;27.70
24639;BMP180;1641;51.306;12.384;2022-07-05T12:07:03;100580.00;;;27.60
24639;BMP180;1641;51.306;12.384;2022-07-05T12:09:31;100580.00;;;27.60
24639;BMP180;1641;51.306;12.384;2022-07-05T12:15:03;100553.00;;;27.40
24639;BMP180;1641;51.306;12.384;2022-07-05T12:17:28;100573.00;;;27.40
24639;BMP180;1641;51.306;12.384;2022-07-05T12:19:54;100570.00;;;27.00
24639;BMP180;1641;51.306;12.384;2022-07-05T12:22:40;100572.00;;;27.20
24639;BMP180;1641;51.306;12.384;2022-07-05T12:25:07;100564.00;;;27.20
24639;BMP180;1641;51.306;12.384;2022-07-05T12:27:38;100569.00;;;27.40
24639;BMP180;1641;51.306;12.384;2022-07-05T12:30:08;100576.00;;;27.50
24639;BMP180;1641;51.306;12.384;2022-07-05T12:33:01;100574.00;;;27.50
24639;BMP180;1641;51.306;12.384;2022-07-05T12:35:39;100571.00;;;27.90
24639;BMP180;1641;51.306;12.384;2022-07-05T12:38:09;100562.00;;;27.40
24639;BMP180;1641;51.306;12.384;2022-07-05T12:40:37;100521.00;;;27.30
24639;BMP180;1641;51.306;12.384;2022-07-05T12:43:21;100555.00;;;27.70
24639;BMP180;1641;51.306;12.384;2022-07-05T12:46:04;100567.00;;;27.90
24639;BMP180;1641;51.306;12.384;2022-07-05T12:48:34;100555.00;;;27.80
24639;BMP180;1641;51.306;12.384;2022-07-05T12:51:00;100544.00;;;27.40
24639;BMP180;1641;51.306;12.384;2022-07-05T12:53:26;100559.00;;;27.20
24639;BMP180;1641;51.306;12.384;2022-07-05T12:56:14;100533.00;;;27.60
24639;BMP180;1641;51.306;12.384;2022-07-05T12:59:03;100550.00;;;28.40
24639;BMP180;1641;51.306;12.384;2022-07-05T13:01:42;100510.00;;;28.30
24639;BMP180;1641;51.306;12.384;2022-07-05T13:04:16;100545.00;;;27.80
24639;BMP180;1641;51.306;12.384;2022-07-05T13:06:43;100545.00;;;27.60
24639;BMP180;1641;51.306;12.384;2022-07-05T13:09:10;100543.00;;;27.60
24639;BMP180;1641;51.306;12.384;2022-07-05T13:11:36;100531.00;;;27.70
24639;BMP180;1641;51.306;12.384;2022-07-05T13:14:02;100539.00;;;28.20
24639;BMP180;1641;51.306;12.384;2022-07-05T13:16:27;100537.00;;;28.20
24639;BMP180;1641;51.306;12.384;2022-07-05T13:19:11;100538.00;;;27.40
24639;BMP180;1641;51.306;12.384;2022-07-05T13:21:38;100524.00;;;27.30
24639;BMP180;1641;51.306;12.384;2022-07-05T13:24:04;100519.00;;;27.80
24639;BMP180;1641;51.306;12.384;2022-07-05T13:26:30;100532.00;;;28.20
24639;BMP180;1641;51.306;12.384;2022-07-05T13:28:55;100526.00;;;28.00
24639;BMP180;1641;51.306;12.384;2022-07-05T13:31:21;100516.00;;;28.30
24639;BMP180;1641;51.306;12.384;2022-07-05T13:33:46;100513.00;;;28.20
24639;BMP180;1641;51.306;12.384;2022-07-05T13:36:11;100523.00;;;28.00
24639;BMP180;1641;51.306;12.384;2022-07-05T13:38:36;100495.00;;;28.10
24639;BMP180;1641;51.306;12.384;2022-07-05T13:41:02;100512.00;;;28.00
24639;BMP180;1641;51.306;12.384;2022-07-05T13:43:27;100521.00;;;28.40
24639;BMP180;1641;51.306;12.384;2022-07-05T13:45:52;100521.00;;;28.30
24639;BMP180;1641;51.306;12.384;2022-07-05T13:48:17;100502.00;;;28.10
24639;BMP180;1641;51.306;12.384;2022-07-05T13:50:43;100521.00;;;28.00
24639;BMP180;1641;51.306;12.384;2022-07-05T13:53:08;100521.00;;;28.00
24639;BMP180;1641;51.306;12.384;2022-07-05T13:55:33;100453.00;;;28.00
24639;BMP180;1641;51.306;12.384;2022-07-05T13:57:58;100516.00;;;28.60
24639;BMP180;1641;51.306;12.384;2022-07-05T14:00:24;100516.00;;;28.60
24639;BMP180;1641;51.306;12.384;2022-07-05T14:02:52;100520.00;;;28.80
24639;BMP180;1641;51.306;12.384;2022-07-05T14:05:17;100512.00;;;28.80
24639;BMP180;1641;51.306;12.384;2022-07-05T14:07:43;100515.00;;;29.10
24639;BMP180;1641;51.306;12.384;2022-07-05T14:10:08;100515.00;;;29.50
24639;BMP180;1641;51.306;12.384;2022-07-05T14:12:34;100519.00;;;29.50
24639;BMP180;1641;51.306;12.384;2022-07-05T14:14:59;100516.00;;;28.80
24639;BMP180;1641;51.306;12.384;2022-07-05T14:17:24;100514.00;;;28.80
24639;BMP180;1641;51.306;12.384;2022-07-05T14:19:49;100518.00;;;28.30